Time;durP1;ratioP1;P1;durP2;ratioP2;P2;SDS_P1;SDS_P2;PMS_P1;PMS_P2;Temp;Humidity;BMP_temperature;BMP_pressure;BME280_temperature;BME280_humidity;BME280_pressure;Samples;Min_cycle;Max_cycle;Signal;HPM_P1;HPM_P2
2022/03/04 00:02:20;;;;;;;64.80;30.00;;;;;;;-1.39;67.47;98825.03;108400;1271;22552;-78
2022/03/04 00:04:47;;;;;;;68.60;31.40;;;;;;;-1.38;67.33;98824.51;108353;1270;22614;-80
2022/03/04 00:07:14;;;;;;;52.70;27.20;;;;;;;-1.37;67.10;98824.49;108401;1270;22536;-78
2022/03/04 00:09:41;;;;;;;56.60;28.00;;;;;;;-1.39;67.21;98828.27;108433;1271;22538;-77
2022/03/04 00:12:08;;;;;;;37.90;19.40;;;;;;;-1.40;67.16;98829.48;108439;1271;22517;-79
2022/03/04 00:14:35;;;;;;;45.20;22.00;;;;;;;-1.43;67.09;98825.41;108430;1271;23315;-82
2022/03/04 00:17:02;;;;;;;43.90;22.40;;;;;;;-1.46;67.06;98824.11;108392;1270;22537;-81
2022/03/04 00:19:29;;;;;;;62.00;28.50;;;;;;;-1.48;66.81;98816.96;108393;1271;22633;-82
2022/03/04 00:21:56;;;;;;;67.00;29.20;;;;;;;-1.48;67.27;98822.09;108374;1271;22705;-80
2022/03/04 00:24:24;;;;;;;76.00;32.90;;;;;;;-1.42;67.16;98821.48;108438;1270;22540;-81
2022/03/04 00:26:51;;;;;;;84.70;35.50;;;;;;;-1.38;67.64;98818.86;108400;1271;22518;-78
2022/03/04 00:29:18;;;;;;;85.20;34.00;;;;;;;-1.34;68.09;98819.17;108434;1271;22541;-79
2022/03/04 00:31:45;;;;;;;56.20;26.30;;;;;;;-1.33;68.35;98820.84;108413;1271;22674;-76
2022/03/04 00:34:12;;;;;;;54.00;25.50;;;;;;;-1.34;67.79;98820.33;108449;1270;22526;-77
2022/03/04 00:36:40;;;;;;;67.20;30.00;;;;;;;-1.33;67.56;98821.34;108429;1271;22701;-76
2022/03/04 00:39:10;;;;;;;66.10;30.80;;;;;;;-1.34;67.37;98815.38;108437;1271;23385;-80
2022/03/04 00:41:37;;;;;;;92.80;40.00;;;;;;;-1.33;67.21;98816.55;108397;1271;22525;-79
2022/03/04 00:44:06;;;;;;;172.00;72.10;;;;;;;-1.33;66.94;98812.45;108380;1271;22542;-80
2022/03/04 00:46:34;;;;;;;75.60;33.90;;;;;;;-1.34;66.94;98805.63;108520;1271;22525;-79
2022/03/04 00:49:01;;;;;;;62.60;28.30;;;;;;;-1.34;67.00;98801.72;108456;1271;22700;-77
2022/03/04 00:51:28;;;;;;;64.50;27.50;;;;;;;-1.35;66.69;98796.45;108430;1271;23036;-79
2022/03/04 00:53:56;;;;;;;50.20;23.70;;;;;;;-1.34;66.67;98794.04;108399;1271;22561;-77
2022/03/04 00:56:23;;;;;;;61.60;27.10;;;;;;;-1.36;66.60;98788.27;108406;1271;22566;-76
2022/03/04 00:58:50;;;;;;;62.50;28.60;;;;;;;-1.37;66.74;98785.88;108427;1271;24335;-77
2022/03/04 01:01:17;;;;;;;54.90;25.80;;;;;;;-1.37;66.56;98784.52;108442;1271;22516;-76
2022/03/04 01:03:44;;;;;;;58.20;24.70;;;;;;;-1.38;66.50;98786.41;108477;1271;22585;-80
2022/03/04 01:06:11;;;;;;;50.60;23.30;;;;;;;-1.35;66.69;98787.23;108463;1269;22576;-77
2022/03/04 01:08:38;;;;;;;46.90;22.80;;;;;;;-1.33;67.10;98785.82;108318;1271;22543;-79
2022/03/04 01:11:05;;;;;;;48.90;22.40;;;;;;;-1.31;67.54;98786.13;108398;1271;22828;-80
2022/03/04 01:13:32;;;;;;;48.80;24.30;;;;;;;-1.32;67.71;98787.15;108397;1271;22541;-80
2022/03/04 01:15:59;;;;;;;49.20;24.80;;;;;;;-1.30;67.57;98781.50;108416;1271;22534;-77
2022/03/04 01:18:26;;;;;;;51.30;26.10;;;;;;;-1.29;67.26;98782.86;108436;1271;22554;-77
2022/03/04 01:20:53;;;;;;;55.30;26.30;;;;;;;-1.31;67.06;98782.03;108438;1271;24230;-76
2022/03/04 01:23:20;;;;;;;53.60;25.00;;;;;;;-1.37;66.89;98788.27;108470;1271;22576;-77
2022/03/04 01:25:47;;;;;;;50.90;23.50;;;;;;;-1.42;66.99;98793.12;108462;1271;22522;-80
2022/03/04 01:28:15;;;;;;;52.90;24.20;;;;;;;-1.46;67.00;98790.80;108374;1271;24427;-76
2022/03/04 01:30:42;;;;;;;54.30;24.10;;;;;;;-1.48;66.82;98794.40;108442;1271;22600;-76
2022/03/04 01:33:09;;;;;;;50.10;23.70;;;;;;;-1.50;66.72;98795.80;108464;1271;22576;-79
2022/03/04 01:35:36;;;;;;;55.00;23.70;;;;;;;-1.53;66.89;98799.27;108439;1271;22539;-80
2022/03/04 01:38:04;;;;;;;55.60;25.70;;;;;;;-1.54;66.72;98803.73;108371;1271;22577;-74
2022/03/04 01:40:31;;;;;;;59.80;27.00;;;;;;;-1.56;66.54;98805.11;108417;1271;22636;-76
2022/03/04 01:42:58;;;;;;;54.40;26.90;;;;;;;-1.58;66.57;98805.14;108110;1271;362829;-80
2022/03/04 01:45:25;;;;;;;52.90;25.60;;;;;;;-1.52;67.04;98803.35;108403;1271;25554;-76
2022/03/04 01:47:52;;;;;;;53.30;25.70;;;;;;;-1.48;67.87;98805.69;108415;1271;22543;-78
2022/03/04 01:50:20;;;;;;;51.40;23.30;;;;;;;-1.48;68.39;98806.54;108416;1271;22554;-77
2022/03/04 01:52:47;;;;;;;47.90;22.70;;;;;;;-1.48;68.40;98808.42;108386;1271;23970;-78
2022/03/04 01:55:14;;;;;;;46.70;23.50;;;;;;;-1.50;68.14;98806.05;108411;1271;22522;-82
2022/03/04 01:57:41;;;;;;;45.50;22.10;;;;;;;-1.51;67.96;98803.67;108576;1268;22547;-77
2022/03/04 02:00:11;;;;;;;45.50;23.00;;;;;;;-1.53;67.68;98795.69;108582;1271;22524;-77
2022/03/04 02:02:39;;;;;;;47.10;21.80;;;;;;;-1.56;67.67;98795.73;108551;1271;22532;-79
2022/03/04 02:05:06;;;;;;;41.80;22.00;;;;;;;-1.58;67.47;98798.13;108572;1271;22677;-78
2022/03/04 02:07:33;;;;;;;47.20;24.20;;;;;;;-1.62;67.54;98794.78;108595;1271;22522;-77
2022/03/04 02:10:00;;;;;;;42.80;21.40;;;;;;;-1.67;67.44;98801.84;108567;1271;22533;-80
2022/03/04 02:12:27;;;;;;;47.70;21.50;;;;;;;-1.69;67.59;98802.90;108541;1271;22548;-75
2022/03/04 02:14:54;;;;;;;55.40;24.90;;;;;;;-1.75;67.90;98798.37;108615;1271;25397;-79
2022/03/04 02:17:22;;;;;;;57.50;26.40;;;;;;;-1.78;68.08;98802.15;108578;1271;22567;-75
2022/03/04 02:19:56;;;;;;;57.90;25.90;;;;;;;-1.78;68.62;98797.21;108558;1271;22537;-75
2022/03/04 02:22:24;;;;;;;54.70;25.90;;;;;;;-1.76;69.39;98798.55;108537;1271;22526;-76
2022/03/04 02:24:51;;;;;;;53.50;25.40;;;;;;;-1.74;70.15;98803.14;108572;1271;22547;-77
2022/03/04 02:27:18;;;;;;;55.50;26.60;;;;;;;-1.78;70.02;98809.67;108531;1271;22604;-76
2022/03/04 02:29:45;;;;;;;59.00;25.30;;;;;;;-1.81;69.69;98808.02;108590;1268;24676;-77
2022/03/04 02:32:12;;;;;;;56.10;25.20;;;;;;;-1.82;69.24;98805.30;108548;1271;22543;-77
2022/03/04 02:34:40;;;;;;;56.40;24.40;;;;;;;-1.81;69.03;98805.30;108570;1271;23913;-75
2022/03/04 02:37:07;;;;;;;53.30;25.40;;;;;;;-1.83;69.19;98803.77;108522;1271;22547;-76
2022/03/04 02:39:34;;;;;;;53.10;25.70;;;;;;;-1.85;69.09;98804.98;108588;1271;22525;-76
2022/03/04 02:42:02;;;;;;;54.10;25.90;;;;;;;-1.89;68.99;98805.89;108536;1271;22695;-75
2022/03/04 02:44:28;;;;;;;55.00;25.10;;;;;;;-1.91;68.91;98803.88;108602;1269;22681;-75
2022/03/04 02:46:55;;;;;;;56.60;25.80;;;;;;;-1.85;68.85;98804.81;108554;1271;22610;-76
2022/03/04 02:49:23;;;;;;;58.20;24.50;;;;;;;-1.79;69.45;98804.92;108612;1271;22519;-80
2022/03/04 02:51:50;;;;;;;51.00;23.60;;;;;;;-1.75;69.71;98808.61;108556;1271;22527;-74
2022/03/04 02:54:17;;;;;;;57.20;25.40;;;;;;;-1.72;69.99;98813.20;108611;1271;22643;-75
2022/03/04 02:56:44;;;;;;;53.60;24.40;;;;;;;-1.71;69.73;98819.16;108581;1271;22553;-75
2022/03/04 02:59:11;;;;;;;54.20;24.80;;;;;;;-1.73;69.61;98819.52;108618;1271;22521;-80
2022/03/04 03:01:38;;;;;;;58.50;24.80;;;;;;;-1.75;69.56;98822.27;108591;1271;22611;-77
2022/03/04 03:04:05;;;;;;;50.40;23.70;;;;;;;-1.75;69.38;98823.64;108594;1271;22540;-75
2022/03/04 03:06:32;;;;;;;48.60;22.90;;;;;;;-1.76;69.26;98819.73;108618;1271;22614;-75
2022/03/04 03:08:59;;;;;;;49.70;23.00;;;;;;;-1.76;69.26;98820.58;108577;1271;25308;-75
2022/03/04 03:11:26;;;;;;;51.40;24.10;;;;;;;-1.77;69.16;98817.69;108616;1271;22613;-76
2022/03/04 03:13:53;;;;;;;53.90;24.70;;;;;;;-1.77;68.99;98822.29;108581;1271;22530;-80
2022/03/04 03:16:21;;;;;;;50.30;24.00;;;;;;;-1.73;69.45;98822.42;108572;1271;22600;-75
2022/03/04 03:18:48;;;;;;;50.60;23.20;;;;;;;-1.69;69.83;98820.32;108668;1271;22580;-75
2022/03/04 03:21:15;;;;;;;43.30;22.10;;;;;;;-1.65;70.51;98825.22;108671;1271;22606;-74
2022/03/04 03:23:42;;;;;;;47.90;22.10;;;;;;;-1.65;70.70;98815.48;108637;1271;22685;-76
2022/03/04 03:26:09;;;;;;;45.40;21.90;;;;;;;-1.65;70.34;98817.37;108584;1271;22592;-74
2022/03/04 03:28:36;;;;;;;41.80;21.10;;;;;;;-1.65;70.06;98818.04;108579;1271;22538;-75
2022/03/04 03:31:03;;;;;;;42.70;19.90;;;;;;;-1.65;69.88;98818.56;108672;1271;26549;-74
2022/03/04 03:33:31;;;;;;;46.40;21.20;;;;;;;-1.64;69.76;98819.41;108656;1271;22558;-79
2022/03/04 03:35:58;;;;;;;42.60;21.90;;;;;;;-1.64;69.48;98820.77;108576;1271;22525;-74
2022/03/04 03:38:25;;;;;;;45.60;21.50;;;;;;;-1.64;69.59;98816.84;108594;1271;24202;-75
2022/03/04 03:40:52;;;;;;;41.10;20.50;;;;;;;-1.64;69.38;98820.60;108594;1271;22538;-78
2022/03/04 03:43:19;;;;;;;48.40;22.30;;;;;;;-1.64;69.36;98818.55;108562;1271;22536;-74
2022/03/04 03:45:46;;;;;;;40.30;19.90;;;;;;;-1.59;69.70;98818.80;108533;1271;22613;-77
2022/03/04 03:48:13;;;;;;;44.10;21.50;;;;;;;-1.57;70.39;98823.73;108353;1271;22701;-76
2022/03/04 03:50:41;;;;;;;37.60;18.90;;;;;;;-1.53;71.12;98825.73;108874;1271;24183;-77
2022/03/04 03:53:09;;;;;;;36.30;18.70;;;;;;;-1.52;71.38;98824.02;108371;1271;22552;-76
2022/03/04 03:55:36;;;;;;;40.70;19.50;;;;;;;-1.55;70.97;98823.73;108406;1271;25423;-77
2022/03/04 03:58:03;;;;;;;40.50;19.40;;;;;;;-1.55;70.72;98824.23;108427;1269;24308;-74
2022/03/04 04:00:31;;;;;;;40.90;19.70;;;;;;;-1.55;70.48;98822.70;108442;1271;22836;-75
2022/03/04 04:02:58;;;;;;;39.50;19.10;;;;;;;-1.56;70.46;98822.52;108443;1271;22558;-79
2022/03/04 04:05:25;;;;;;;42.00;18.50;;;;;;;-1.54;70.22;98823.38;108495;1271;22604;-79
2022/03/04 04:07:52;;;;;;;34.80;17.60;;;;;;;-1.54;70.31;98824.73;108452;1271;23122;-73
2022/03/04 04:10:20;;;;;;;36.50;17.20;;;;;;;-1.53;70.13;98823.52;108460;1271;23789;-79
2022/03/04 04:12:47;;;;;;;39.80;18.50;;;;;;;-1.53;70.10;98821.98;108450;1271;25502;-74
2022/03/04 04:15:14;;;;;;;37.30;18.00;;;;;;;-1.48;70.40;98822.08;108402;1271;22575;-75
2022/03/04 04:17:41;;;;;;;39.20;17.70;;;;;;;-1.45;70.87;98823.59;108383;1271;22952;-75
2022/03/04 04:20:09;;;;;;;33.90;16.60;;;;;;;-1.42;71.51;98823.70;108394;1271;23092;-77
2022/03/04 04:22:36;;;;;;;36.40;17.60;;;;;;;-1.41;71.64;98821.30;108417;1271;22525;-76
2022/03/04 04:25:03;;;;;;;37.80;18.00;;;;;;;-1.40;71.51;98822.98;108437;1271;23082;-80
2022/03/04 04:27:30;;;;;;;36.50;18.10;;;;;;;-1.42;71.40;98822.16;108460;1271;22539;-79
2022/03/04 04:29:57;;;;;;;34.60;17.00;;;;;;;-1.42;71.05;98820.80;108451;1271;22549;-74
2022/03/04 04:32:24;;;;;;;35.10;17.90;;;;;;;-1.43;71.14;98821.68;108433;1271;22668;-75
2022/03/04 04:34:51;;;;;;;41.60;19.00;;;;;;;-1.44;71.00;98822.38;108373;1271;22671;-76
2022/03/04 04:37:18;;;;;;;35.90;16.60;;;;;;;-1.44;70.87;98821.20;108384;1271;22546;-76
2022/03/04 04:39:45;;;;;;;37.90;16.50;;;;;;;-1.40;71.23;98825.55;108416;1271;22531;-76
2022/03/04 04:42:12;;;;;;;30.90;14.70;;;;;;;-1.38;72.13;98826.39;108415;1271;22774;-76
2022/03/04 04:44:39;;;;;;;31.30;15.10;;;;;;;-1.40;72.65;98826.58;108419;1271;22643;-77
2022/03/04 04:47:06;;;;;;;32.50;15.70;;;;;;;-1.41;72.83;98826.58;108411;1271;24434;-77
2022/03/04 04:49:37;;;;;;;35.90;15.60;;;;;;;-1.45;72.59;98825.97;108411;1271;22540;-76
2022/03/04 04:52:05;;;;;;;30.90;16.20;;;;;;;-1.47;72.25;98821.55;108432;1271;22561;-77
2022/03/04 04:54:33;;;;;;;36.90;16.60;;;;;;;-1.47;72.28;98822.41;108536;1271;22598;-80
2022/03/04 04:57:01;;;;;;;31.20;15.40;;;;;;;-1.47;72.05;98820.70;108408;1271;22660;-78
2022/03/04 04:59:28;;;;;;;36.00;16.20;;;;;;;-1.47;72.00;98821.73;108362;1271;22546;-77
2022/03/04 05:01:55;;;;;;;32.70;15.20;;;;;;;-1.44;72.32;98819.64;108419;1271;22711;-75
2022/03/04 05:04:22;;;;;;;34.10;15.70;;;;;;;-1.42;73.02;98824.38;108384;1271;22525;-74
2022/03/04 05:06:49;;;;;;;37.00;17.00;;;;;;;-1.43;73.72;98826.61;108406;1271;22536;-77
2022/03/04 05:09:16;;;;;;;36.70;17.60;;;;;;;-1.45;73.82;98827.67;108396;1271;22543;-77
2022/03/04 05:11:43;;;;;;;32.10;15.30;;;;;;;-1.47;73.66;98830.62;108375;1271;22553;-79
2022/03/04 05:14:10;;;;;;;33.60;15.70;;;;;;;-1.51;73.44;98826.04;108393;1270;22530;-78
2022/03/04 05:16:37;;;;;;;32.10;14.50;;;;;;;-1.51;73.23;98825.20;108351;1272;22675;-73
2022/03/04 05:19:05;;;;;;;30.40;15.20;;;;;;;-1.54;73.08;98826.45;108385;1271;22601;-75
2022/03/04 05:21:32;;;;;;;36.80;16.80;;;;;;;-1.54;73.03;98827.80;108382;1271;22688;-75
2022/03/04 05:23:59;;;;;;;40.10;17.10;;;;;;;-1.48;73.13;98830.62;108382;1271;22744;-75
2022/03/04 05:26:35;;;;;;;37.00;17.00;;;;;;;-1.45;73.44;98832.14;108411;1271;22610;-76
2022/03/04 05:29:10;;;;;;;35.80;17.40;;;;;;;-1.43;74.36;98834.97;108369;1271;24409;-76
2022/03/04 05:31:39;;;;;;;33.90;16.10;;;;;;;-1.43;74.55;98832.78;108588;1271;22580;-75
2022/03/04 05:34:06;;;;;;;41.70;17.00;;;;;;;-1.46;74.46;98832.99;108420;1271;22862;-76
2022/03/04 05:36:34;;;;;;;47.00;18.30;;;;;;;-1.49;74.18;98835.76;108382;1271;22557;-79
2022/03/04 05:39:02;;;;;;;36.70;15.40;;;;;;;-1.48;74.08;98835.23;108387;1271;23221;-75
2022/03/04 05:41:29;;;;;;;34.70;15.60;;;;;;;-1.53;74.05;98837.02;108370;1271;22679;-76
2022/03/04 05:43:56;;;;;;;40.50;18.20;;;;;;;-1.55;74.28;98840.98;108386;1271;22555;-76
2022/03/04 05:46:24;;;;;;;34.30;15.50;;;;;;;-1.53;74.57;98839.58;108382;1271;22652;-73
2022/03/04 05:48:51;;;;;;;32.90;15.10;;;;;;;-1.50;75.08;98848.25;108385;1270;24425;-76
2022/03/04 05:51:18;;;;;;;30.30;15.10;;;;;;;-1.50;75.79;98852.16;108436;1271;22575;-75
2022/03/04 05:53:45;;;;;;;32.40;15.50;;;;;;;-1.52;75.74;98851.69;108346;1271;22672;-76
2022/03/04 05:56:12;;;;;;;31.50;15.50;;;;;;;-1.54;75.40;98853.60;108353;1271;22557;-74
2022/03/04 05:58:40;;;;;;;35.40;16.60;;;;;;;-1.53;75.18;98851.38;108394;1271;23266;-74
2022/03/04 06:01:07;;;;;;;35.70;15.70;;;;;;;-1.51;74.96;98857.98;108430;1271;22704;-76
2022/03/04 06:03:35;;;;;;;37.30;17.00;;;;;;;-1.47;74.73;98860.00;108369;1271;22574;-74
2022/03/04 06:06:03;;;;;;;36.90;16.70;;;;;;;-1.42;74.77;98858.04;108391;1271;22562;-78
2022/03/04 06:08:31;;;;;;;38.40;17.90;;;;;;;-1.37;75.27;98863.95;108425;1271;23089;-77
2022/03/04 06:10:58;;;;;;;30.40;15.90;;;;;;;-1.32;75.76;98862.33;108698;1271;22531;-76
2022/03/04 06:13:26;;;;;;;33.80;16.90;;;;;;;-1.30;75.84;98864.70;108396;1271;22730;-76
2022/03/04 06:15:53;;;;;;;41.10;18.30;;;;;;;-1.28;75.62;98868.79;108452;1271;22776;-78
2022/03/04 06:18:21;;;;;;;38.30;18.10;;;;;;;-1.26;75.23;98870.48;108440;1271;22537;-75
2022/03/04 06:20:48;;;;;;;39.00;18.50;;;;;;;-1.25;75.12;98878.14;108383;1271;22613;-75
2022/03/04 06:23:15;;;;;;;46.10;19.50;;;;;;;-1.25;74.96;98882.23;108376;1271;22563;-78
2022/03/04 06:25:43;;;;;;;42.50;19.00;;;;;;;-1.19;74.97;98887.45;108370;1271;22555;-76
2022/03/04 06:28:10;;;;;;;38.40;18.30;;;;;;;-1.13;75.51;98890.10;108389;1271;22624;-74
2022/03/04 06:30:37;;;;;;;33.50;17.30;;;;;;;-1.09;75.79;98888.70;108385;1271;22565;-74
2022/03/04 06:35:53;;;;;;;37.30;16.80;;;;;;;-1.04;75.50;98891.02;108425;1271;22582;-74
2022/03/04 06:38:21;;;;;;;33.30;16.80;;;;;;;-1.08;75.39;98893.13;108496;1271;22697;-74
2022/03/04 06:40:49;;;;;;;35.50;17.30;;;;;;;-1.10;75.10;98894.69;108441;1270;22559;-78
2022/03/04 06:43:17;;;;;;;37.60;17.70;;;;;;;-1.06;74.91;98894.45;108414;1271;25363;-77
2022/03/04 06:45:46;;;;;;;37.90;18.30;;;;;;;-1.02;75.11;98898.84;108467;1271;22641;-74
2022/03/04 06:48:15;;;;;;;39.90;18.20;;;;;;;-0.98;75.45;98899.98;108452;1271;22544;-73
2022/03/04 06:50:42;;;;;;;35.90;16.80;;;;;;;-0.93;76.16;98894.61;108418;1271;22555;-73
2022/03/04 06:53:09;;;;;;;34.80;18.50;;;;;;;-0.91;76.14;98894.41;108464;1270;22538;-73
2022/03/04 06:55:36;;;;;;;36.80;17.20;;;;;;;-0.91;75.96;98894.57;108460;1271;22687;-73
2022/03/04 06:58:03;;;;;;;39.10;18.80;;;;;;;-0.88;75.61;98893.15;108412;1271;22538;-74
2022/03/04 07:00:30;;;;;;;37.50;18.20;;;;;;;-0.86;75.53;98895.68;108491;1271;23011;-73
2022/03/04 07:02:58;;;;;;;43.10;19.90;;;;;;;-0.84;75.39;98899.08;108406;1271;26658;-73
2022/03/04 07:05:25;;;;;;;40.70;20.30;;;;;;;-0.76;75.44;98902.73;108322;1271;22866;-75
2022/03/04 07:07:54;;;;;;;39.40;19.50;;;;;;;-0.71;75.87;98905.36;108393;1271;22578;-77
2022/03/04 07:10:22;;;;;;;42.00;19.60;;;;;;;-0.69;76.37;98904.98;108446;1271;22569;-81
2022/03/04 07:12:50;;;;;;;39.70;19.00;;;;;;;-0.75;76.30;98909.36;108437;1271;22661;-80
2022/03/04 07:15:18;;;;;;;42.90;21.60;;;;;;;-0.76;75.98;98915.20;108391;1271;22566;-81
2022/03/04 07:17:46;;;;;;;44.60;21.40;;;;;;;-0.75;75.83;98910.58;108351;1271;22544;-73
2022/03/04 07:20:13;;;;;;;46.50;21.70;;;;;;;-0.72;75.49;98911.05;108362;1271;22566;-77
2022/03/04 07:22:42;;;;;;;43.90;19.60;;;;;;;-0.66;75.31;98912.81;108336;1271;25251;-76
2022/03/04 07:25:12;;;;;;;45.80;21.00;;;;;;;-0.57;75.29;98911.15;108410;1271;22539;-75
2022/03/04 07:27:40;;;;;;;42.80;20.70;;;;;;;-0.49;75.69;98914.60;108377;1271;22585;-74
2022/03/04 07:30:10;;;;;;;44.00;21.30;;;;;;;-0.42;76.08;98920.30;108369;1271;22563;-72
2022/03/04 07:32:39;;;;;;;45.00;20.40;;;;;;;-0.40;76.22;98920.78;108449;1271;22563;-73
2022/03/04 07:35:08;;;;;;;41.80;19.60;;;;;;;-0.36;75.86;98917.98;108434;1271;22530;-74
2022/03/04 07:37:36;;;;;;;41.00;19.00;;;;;;;-0.32;75.51;98922.02;108501;1271;22577;-75
2022/03/04 07:40:04;;;;;;;42.00;20.10;;;;;;;-0.30;75.36;98922.67;108366;1271;22614;-73
2022/03/04 07:42:31;;;;;;;43.20;19.80;;;;;;;-0.30;75.04;98924.39;108394;1271;22569;-76
2022/03/04 07:44:59;;;;;;;44.10;21.60;;;;;;;-0.31;74.82;98926.80;108368;1271;22700;-76
2022/03/04 07:47:26;;;;;;;45.10;20.70;;;;;;;-0.34;74.80;98928.73;108537;1271;22540;-77
2022/03/04 07:49:53;;;;;;;49.40;21.60;;;;;;;-0.33;74.93;98928.52;108447;1271;22588;-83
2022/03/04 07:52:20;;;;;;;46.60;22.10;;;;;;;-0.34;75.45;98930.27;108401;1271;25167;-74
2022/03/04 07:54:47;;;;;;;59.30;26.20;;;;;;;-0.31;76.01;98932.63;108387;1271;22576;-81
2022/03/04 07:57:14;;;;;;;61.50;28.90;;;;;;;-0.33;75.88;98932.64;108473;1271;23755;-84
2022/03/04 07:59:41;;;;;;;53.40;25.00;;;;;;;-0.34;75.67;98930.77;108427;1271;22525;-81
2022/03/04 08:02:08;;;;;;;71.20;29.20;;;;;;;-0.29;75.42;98933.61;108448;1271;22651;-82
2022/03/04 08:04:35;;;;;;;51.00;22.90;;;;;;;-0.24;74.97;98931.81;108388;1271;23477;-77
2022/03/04 08:07:02;;;;;;;54.40;24.10;;;;;;;-0.27;75.05;98934.08;108348;1271;25339;-80
2022/03/04 08:09:29;;;;;;;57.10;23.90;;;;;;;-0.26;74.94;98935.60;108321;1271;22778;-77
2022/03/04 08:11:56;;;;;;;56.40;24.00;;;;;;;-0.20;75.21;98931.91;108411;1271;27683;-78
2022/03/04 08:14:23;;;;;;;53.80;24.90;;;;;;;-0.12;75.52;98929.02;108389;1271;24251;-80
2022/03/04 08:16:51;;;;;;;53.60;23.40;;;;;;;0.02;76.41;98923.98;108417;1271;23221;-80
2022/03/04 08:19:18;;;;;;;55.80;24.70;;;;;;;0.07;76.22;98930.41;108461;1271;25311;-75
2022/03/04 08:21:47;;;;;;;60.00;25.00;;;;;;;0.10;75.91;98935.65;108459;1271;22675;-76
2022/03/04 08:24:14;;;;;;;58.20;26.10;;;;;;;0.16;75.63;98933.67;108414;1271;22607;-79
2022/03/04 08:26:41;;;;;;;58.50;25.50;;;;;;;0.21;75.20;98940.59;108380;1271;22708;-79
2022/03/04 08:29:10;;;;;;;56.70;25.00;;;;;;;0.20;75.09;98939.58;108350;1271;22567;-75
2022/03/04 08:31:37;;;;;;;64.80;26.40;;;;;;;0.24;75.00;98938.30;108534;1271;22659;-78
2022/03/04 08:34:05;;;;;;;60.70;26.80;;;;;;;0.33;75.14;98939.17;108404;1271;22522;-74
2022/03/04 08:36:32;;;;;;;66.70;28.00;;;;;;;0.38;75.54;98941.96;108424;1271;22679;-76
2022/03/04 08:39:03;;;;;;;59.10;25.80;;;;;;;0.45;75.89;98943.91;108404;1271;22540;-82
2022/03/04 08:41:30;;;;;;;62.40;27.60;;;;;;;0.47;75.90;98943.16;108333;1271;24231;-76
2022/03/04 08:43:57;;;;;;;61.50;28.30;;;;;;;0.50;75.56;98947.06;108393;1271;22518;-75
2022/03/04 08:46:25;;;;;;;60.40;26.70;;;;;;;0.50;75.27;98950.48;108406;1271;22739;-75
2022/03/04 08:48:52;;;;;;;57.90;27.40;;;;;;;0.50;75.08;98950.31;108415;1271;23248;-75
2022/03/04 08:51:24;;;;;;;74.40;31.10;;;;;;;0.50;74.92;98958.20;108385;1271;23372;-76
2022/03/04 08:53:52;;;;;;;88.70;35.30;;;;;;;0.48;74.60;98955.66;108357;1271;23037;-77
2022/03/04 08:56:20;;;;;;;76.60;30.80;;;;;;;0.50;74.66;98959.05;108462;1271;24373;-75
2022/03/04 08:58:48;;;;;;;64.00;29.20;;;;;;;0.55;75.18;98958.95;108393;1271;22563;-78
2022/03/04 09:01:15;;;;;;;60.10;28.60;;;;;;;0.52;75.61;98956.61;108447;1271;25462;-75
2022/03/04 09:03:42;;;;;;;62.30;28.30;;;;;;;0.47;75.39;98960.47;108382;1270;22563;-75
2022/03/04 09:06:09;;;;;;;67.10;30.30;;;;;;;0.45;75.25;98966.02;108389;1271;23077;-75
2022/03/04 09:08:36;;;;;;;59.60;27.80;;;;;;;0.45;74.94;98967.20;108370;1271;22540;-75
2022/03/04 09:11:03;;;;;;;66.50;30.80;;;;;;;0.42;74.61;98965.55;108444;1271;22549;-76
2022/03/04 09:13:32;;;;;;;63.60;27.80;;;;;;;0.35;74.55;98968.25;108411;1270;22554;-74
2022/03/04 09:16:01;;;;;;;65.00;30.00;;;;;;;0.36;74.51;98966.84;108407;1270;22577;-80
2022/03/04 09:18:29;;;;;;;78.60;32.80;;;;;;;0.49;74.94;98971.75;108578;1271;22584;-74
2022/03/04 09:20:56;;;;;;;67.30;30.20;;;;;;;0.59;75.29;98972.58;108390;1271;22573;-83
2022/03/04 09:23:23;;;;;;;61.50;28.00;;;;;;;0.70;75.53;98970.64;108562;1271;22557;-80
2022/03/04 09:25:51;;;;;;;66.60;31.30;;;;;;;0.84;75.58;98972.59;108553;1271;22526;-74
2022/03/04 09:28:18;;;;;;;67.90;30.20;;;;;;;0.90;75.27;98973.32;108541;1271;25614;-80
2022/03/04 09:30:45;;;;;;;66.80;29.20;;;;;;;1.01;75.12;98973.61;108534;1271;22509;-74
2022/03/04 09:33:12;;;;;;;66.60;30.20;;;;;;;1.09;74.70;98968.79;108557;1271;22604;-78
2022/03/04 09:35:39;;;;;;;70.00;32.10;;;;;;;1.16;74.49;98967.27;108667;1271;24431;-80
2022/03/04 09:38:07;;;;;;;67.10;32.20;;;;;;;1.22;74.39;98969.02;108661;1271;22640;-79
2022/03/04 09:40:34;;;;;;;79.60;34.80;;;;;;;1.30;73.84;98965.59;108617;1271;22525;-78
2022/03/04 09:43:06;;;;;;;71.50;30.70;;;;;;;1.35;73.63;98964.27;108664;1271;22692;-80
2022/03/04 09:45:34;;;;;;;58.40;26.60;;;;;;;1.46;73.75;98966.23;108619;1271;22648;-78
2022/03/04 09:48:04;;;;;;;58.60;26.60;;;;;;;1.57;74.45;98966.67;108606;1271;22548;-76
2022/03/04 09:50:32;;;;;;;60.70;28.20;;;;;;;1.64;74.65;98962.91;108539;1271;22527;-80
2022/03/04 09:53:01;;;;;;;60.70;28.50;;;;;;;1.71;74.51;98963.59;108559;1271;24199;-75
2022/03/04 09:55:28;;;;;;;59.60;27.20;;;;;;;1.82;74.16;98958.84;108627;1271;24221;-78
2022/03/04 09:57:55;;;;;;;56.50;27.30;;;;;;;1.94;73.58;98965.25;108567;1271;22682;-74
2022/03/04 10:00:23;;;;;;;57.10;25.40;;;;;;;2.03;73.30;98962.98;108546;1271;23034;-80
2022/03/04 10:02:50;;;;;;;58.90;26.60;;;;;;;2.09;73.13;98965.40;108559;1271;22536;-80
2022/03/04 10:05:18;;;;;;;69.80;31.30;;;;;;;2.16;72.94;98965.55;108551;1271;22551;-80
2022/03/04 10:07:47;;;;;;;74.50;32.90;;;;;;;2.20;72.29;98967.69;108557;1271;22616;-79
2022/03/04 10:10:22;;;;;;;82.50;40.10;;;;;;;2.13;72.19;98970.27;108552;1271;24350;-80
2022/03/04 10:12:57;;;;;;;57.50;27.60;;;;;;;2.15;71.87;98968.30;108536;1271;25333;-79
2022/03/04 10:15:25;;;;;;;72.50;32.20;;;;;;;2.15;71.87;98966.94;108554;1271;22519;-79
2022/03/04 10:18:04;;;;;;;70.80;28.30;;;;;;;2.22;71.78;98969.52;108550;1271;25411;-79
2022/03/04 10:20:46;;;;;;;65.80;29.80;;;;;;;2.29;71.89;98965.55;108533;1271;25249;-74
2022/03/04 10:23:17;;;;;;;77.00;31.00;;;;;;;2.36;72.58;98970.86;108556;1271;22544;-80
2022/03/04 10:25:51;;;;;;;89.90;33.20;;;;;;;2.28;72.31;98969.02;108621;1271;22568;-81
2022/03/04 10:28:23;;;;;;;93.30;34.40;;;;;;;2.30;72.50;98968.46;108663;1271;24266;-79
2022/03/04 10:30:51;;;;;;;99.30;40.70;;;;;;;2.25;71.77;98969.94;108594;1271;22632;-77
2022/03/04 10:33:24;;;;;;;114.80;38.20;;;;;;;2.22;71.61;98968.14;108582;1271;22516;-81
2022/03/04 10:36:12;;;;;;;69.10;32.20;;;;;;;2.21;71.24;98970.74;108586;1271;22500;-74
2022/03/04 10:38:41;;;;;;;76.00;28.70;;;;;;;2.15;71.12;98973.29;108568;1271;22603;-79
2022/03/04 10:41:35;;;;;;;70.30;29.60;;;;;;;2.04;70.93;98973.60;108547;1271;22527;-81
2022/03/04 10:44:26;;;;;;;100.80;33.60;;;;;;;1.92;70.94;98974.59;108563;1271;22620;-80
2022/03/04 10:46:55;;;;;;;82.60;35.90;;;;;;;1.80;70.93;98975.55;108544;1271;22633;-74
2022/03/04 10:49:27;;;;;;;126.70;46.30;;;;;;;1.70;71.26;98977.18;108569;1271;25247;-77
2022/03/04 10:52:07;;;;;;;142.20;57.50;;;;;;;1.69;71.50;98975.14;108574;1271;22522;-80
2022/03/04 10:54:34;;;;;;;95.70;33.60;;;;;;;1.69;72.00;98978.05;108572;1271;25315;-81
2022/03/04 10:57:03;;;;;;;113.30;37.30;;;;;;;1.69;72.51;98976.88;108597;1271;22852;-81
2022/03/04 10:59:30;;;;;;;77.10;33.40;;;;;;;1.74;72.21;98974.33;108621;1271;22505;-80
2022/03/04 11:02:00;;;;;;;85.90;30.30;;;;;;;1.75;71.97;98973.27;108566;1271;25361;-81
2022/03/04 11:04:27;;;;;;;90.90;35.50;;;;;;;1.88;71.52;98976.73;108574;1271;22544;-80
2022/03/04 11:06:57;;;;;;;60.50;27.10;;;;;;;2.00;71.23;98972.66;108565;1271;22546;-75
2022/03/04 11:09:24;;;;;;;65.40;31.00;;;;;;;2.08;71.08;98971.77;108532;1271;22522;-76
2022/03/04 11:11:53;;;;;;;69.60;28.20;;;;;;;2.14;71.01;98966.10;108578;1271;22632;-76
2022/03/04 11:14:22;;;;;;;106.00;35.40;;;;;;;2.16;70.72;98968.97;108555;1271;25237;-80
2022/03/04 11:16:51;;;;;;;62.30;29.50;;;;;;;2.21;70.61;98964.91;108604;1271;25908;-79
2022/03/04 11:19:19;;;;;;;92.10;33.20;;;;;;;2.16;70.71;98967.42;108601;1271;22544;-81